Portada
METAR-TAF:

METAR-TAF

Aeropuertos :

Cúcuta, Colombia

Aeropuerto Internacional Camilo Daza

latitud: 07-56N, longitud: 072-31W, altitud: 250 m

Observación

El informe se hizo hace 2 horas y 53 minutos, a las 07:00 UTC
Viento 14 kt del sur
Temperatura 28°C
Humedad 58%
Presión 1010 hPa
Visibilidad 10 km o más
Escasas nubes a una altura de 2000 ft

METAR: SKCC 230700Z 18014KT 9999 FEW020 28/19 A2983

Hora: 04:53 (09:53 UTC)

Pronóstico

El informe se hizo hace 4 horas y 53 minutos, a las 05:00 UTC
Pronóstico válido del 23 a las 06 UTC al 24 a las 06 UTC
Viento 15 kt del sur
Visibilidad 10 km o más
Escasas nubes a una altura de 2000 ft
Nubes dispersas a una altura de 20000 ft

TAF: SKCC 230500Z 2306/2406 17015KT 9999 FEW020 SCT200 TX34/2318Z TN25/2311Z

Observaciones y pronósticos meteorológicos de más de 4000 aeropuertos (mensajes METAR y TAF).

Los puntos amarillos y rojos representan las estaciones disponibles.

Ponga el ratón en el punto deseado para ver el nombre de la estación.

Haga clic para ver las observaciones y los pronósticos meteorológicos.

Para cambiar el mapa : haga clic en los botones verdes con una cruz de color negro para hacer un zoom, en el botón verde con un guión para alejar o en las flechas verdes para mapas adyacentes.


METAR-TAF: